logo dgac
Martes 06 de Diciembre del 2022
Buscar por aerodromo o helipuerto
Ingrese nombre de aeródromo, localidad o designador OACI:

Aeródromo: Cochrane (PUB) (SCHR)

Ubicación: Cochrane, XI Región, Chile (47º 14' 37'' S, 72º 35' 16'' W) Ver ubicación en el mapa

Pistas

Luces
Orientación Dimensión Pendiente Superficie Resistencia APCH THR RWY PAPI
07/25 1050 x 23 2,00 ASPH /CONCRETO 23.000 Kg No No No No
Horas de operación HJ
Elevación 196 m / 643 ft
Otra Información Adm : D.G.A.C.
Uso : PUB
Ubicado : 3 km NW Cochrane
TEL (FAX) 67 2522121
email : aro.cochrane@dgac.gob.cl

Al FCCV restar 30 minutos

Otra información ver AIP-Chile Volumen I AD 3.9-3.10-C
CCCM/FCCV Descargar
andera de Chile
Mapa de Cochrane (PUB) (SCHR)

Último METAR

No hay metares registrados para este aeródromo

Último TAF

TAF SCHR 051711Z 0518/0606 VRB05KT 9000 SCT045 TN06/0606Z TX18/0518Z PROB40 TEMPO 0518/0520 26015G25KT CAVOK

Últimas fotos cámaras

Imagen aerodromo Cochrane (PUB) (SCHR) Oeste tomada el 06-12-2022 07:11:35 Imagen aerodromo Cochrane (PUB) (SCHR) Este tomada el 06-12-2022 07:11:27

Último NOTAM

C5512/22 NOTAMN Q)SCCZ/QFMLT/IV/BO/A/000/999/4715S07235W005 A)SCHR B)2212050000 C)2212071129 E)MET OPRG AUTO